Ever Diamond — 3FQS8 — position and weather

sailwx.info

Track history (hours):
 
Tides and Currents Weather Stations Pressure Air Temp Water Temp Dewpoint Dewpoint Depression Visibility Wind Speed Wind Dir Waves Ship Positions

Ever Diamond

Last reported at 2015-Jul-18 16:27 UTC. Time now 2015-Jul-30 00:04 UTC.
Position N 32°18' W 124°39'.
Warning: this ship's position is 11 days out of date.

Type: Ship (hazmat cat D). MMSI: 354893000.

Date/timePositionNaut miles runAvg speedWind from/ knotsBaromVisibWave heightAir tempDewpointWater temp
2015-Jul-18 16:27N 32°18' W 124°39'5417.7
2015-Jul-18 13:25N 32°51' W 125°30'1617.8
2015-Jul-18 12:31N 33°01' W 125°45'7017.7
2015-Jul-18 08:32N 33°43' W 126°52'7117.8
2015-Jul-18 04:33N 34°25' W 128°01'2217.7
2015-Jul-18 03:18N 34°38' W 128°23'1717.6
2015-Jul-18 02:19N 34°48' W 128°40'3117.6
2015-Jul-18 00:33N 35°06' W 129°10'1817.5
2015-Jul-17 23:32N 35°16' W 129°28'  
Track history (hours):
 
Tides and Currents Weather Stations Pressure Air Temp Water Temp Dewpoint Dewpoint Depression Visibility Wind Speed Wind Dir Waves Ship Positions

Ever Diamond

Last reported at 2015-Jul-18 16:27 UTC. Time now 2015-Jul-30 00:04 UTC.
Position N 32°18' W 124°39'.
Warning: this ship's position is 11 days out of date.

Type: Ship (hazmat cat D). MMSI: 354893000.

Date/timePositionNaut miles runAvg speedWind from/ knotsBaromVisibWave heightAir tempDewpointWater temp
2015-Jul-18 16:27N 32°18' W 124°39'5417.7
2015-Jul-18 13:25N 32°51' W 125°30'1617.8
2015-Jul-18 12:31N 33°01' W 125°45'7017.7
2015-Jul-18 08:32N 33°43' W 126°52'7117.8
2015-Jul-18 04:33N 34°25' W 128°01'2217.7
2015-Jul-18 03:18N 34°38' W 128°23'1717.6
2015-Jul-18 02:19N 34°48' W 128°40'3117.6
2015-Jul-18 00:33N 35°06' W 129°10'1817.5
2015-Jul-17 23:32N 35°16' W 129°28'  

Dump ship's entire track history